sensor_id;sensor_type;location;lat;lon;timestamp;temperature;humidity
3256;DHT22;1640;48.504;9.224;2023-12-20T00:01:29;6.40;99.90
3256;DHT22;1640;48.504;9.224;2023-12-20T00:03:57;6.40;99.90
3256;DHT22;1640;48.504;9.224;2023-12-20T00:06:25;6.50;99.90
3256;DHT22;1640;48.504;9.224;2023-12-20T00:08:54;6.50;99.90
3256;DHT22;1640;48.504;9.224;2023-12-20T00:11:21;6.60;99.90
3256;DHT22;1640;48.504;9.224;2023-12-20T00:13:49;6.60;99.90
3256;DHT22;1640;48.504;9.224;2023-12-20T00:16:17;6.60;99.90
3256;DHT22;1640;48.504;9.224;2023-12-20T00:18:44;6.50;99.90
3256;DHT22;1640;48.504;9.224;2023-12-20T00:21:12;6.50;99.90
3256;DHT22;1640;48.504;9.224;2023-12-20T00:23:40;6.50;99.90
3256;DHT22;1640;48.504;9.224;2023-12-20T00:26:09;6.60;99.90
3256;DHT22;1640;48.504;9.224;2023-12-20T00:28:36;6.60;99.90
3256;DHT22;1640;48.504;9.224;2023-12-20T00:31:04;6.60;99.90
3256;DHT22;1640;48.504;9.224;2023-12-20T00:33:32;6.70;99.90
3256;DHT22;1640;48.504;9.224;2023-12-20T00:35:59;6.70;99.90
3256;DHT22;1640;48.504;9.224;2023-12-20T00:38:27;6.60;99.90
3256;DHT22;1640;48.504;9.224;2023-12-20T00:40:55;6.50;99.90
3256;DHT22;1640;48.504;9.224;2023-12-20T00:43:24;6.50;99.90
3256;DHT22;1640;48.504;9.224;2023-12-20T00:45:51;6.60;99.90
3256;DHT22;1640;48.504;9.224;2023-12-20T00:48:19;6.60;99.90
3256;DHT22;1640;48.504;9.224;2023-12-20T00:50:47;6.50;99.90
3256;DHT22;1640;48.504;9.224;2023-12-20T00:53:14;6.50;99.90
3256;DHT22;1640;48.504;9.224;2023-12-20T00:55:42;6.50;99.90
3256;DHT22;1640;48.504;9.224;2023-12-20T00:58:10;6.60;99.90
3256;DHT22;1640;48.504;9.224;2023-12-20T01:00:39;6.70;99.90
3256;DHT22;1640;48.504;9.224;2023-12-20T01:03:07;6.70;99.90
3256;DHT22;1640;48.504;9.224;2023-12-20T01:05:35;6.60;99.90
3256;DHT22;1640;48.504;9.224;2023-12-20T01:08:03;6.60;99.90
3256;DHT22;1640;48.504;9.224;2023-12-20T01:10:31;6.50;99.90
3256;DHT22;1640;48.504;9.224;2023-12-20T01:12:58;6.50;99.90
3256;DHT22;1640;48.504;9.224;2023-12-20T01:15:26;6.40;99.90
3256;DHT22;1640;48.504;9.224;2023-12-20T01:17:55;6.40;99.90
3256;DHT22;1640;48.504;9.224;2023-12-20T01:20:24;6.40;99.90
3256;DHT22;1640;48.504;9.224;2023-12-20T01:22:52;6.40;99.90
3256;DHT22;1640;48.504;9.224;2023-12-20T01:25:20;6.50;99.90
3256;DHT22;1640;48.504;9.224;2023-12-20T01:27:47;6.60;99.90
3256;DHT22;1640;48.504;9.224;2023-12-20T01:30:15;6.60;99.90
3256;DHT22;1640;48.504;9.224;2023-12-20T01:32:42;6.60;99.90
3256;DHT22;1640;48.504;9.224;2023-12-20T01:35:11;6.60;99.90
3256;DHT22;1640;48.504;9.224;2023-12-20T01:37:39;6.50;99.90
3256;DHT22;1640;48.504;9.224;2023-12-20T01:40:08;6.50;99.90
3256;DHT22;1640;48.504;9.224;2023-12-20T01:42:35;6.40;99.90
3256;DHT22;1640;48.504;9.224;2023-12-20T01:45:04;6.50;99.90
3256;DHT22;1640;48.504;9.224;2023-12-20T01:47:31;6.50;99.90
3256;DHT22;1640;48.504;9.224;2023-12-20T01:49:59;6.50;99.90
3256;DHT22;1640;48.504;9.224;2023-12-20T01:52:31;6.50;99.90
3256;DHT22;1640;48.504;9.224;2023-12-20T01:55:00;6.40;99.90
3256;DHT22;1640;48.504;9.224;2023-12-20T01:57:30;6.30;99.90
3256;DHT22;1640;48.504;9.224;2023-12-20T01:59:58;6.30;99.90
3256;DHT22;1640;48.504;9.224;2023-12-20T02:02:27;6.20;99.90
3256;DHT22;1640;48.504;9.224;2023-12-20T02:04:56;6.20;99.90
3256;DHT22;1640;48.504;9.224;2023-12-20T02:07:24;6.10;99.90
3256;DHT22;1640;48.504;9.224;2023-12-20T02:09:53;6.10;99.90
3256;DHT22;1640;48.504;9.224;2023-12-20T02:12:21;6.00;99.90
3256;DHT22;1640;48.504;9.224;2023-12-20T02:14:49;5.90;99.90
3256;DHT22;1640;48.504;9.224;2023-12-20T02:17:17;6.00;99.90
3256;DHT22;1640;48.504;9.224;2023-12-20T02:19:44;6.00;99.90
3256;DHT22;1640;48.504;9.224;2023-12-20T02:22:13;5.90;99.90
3256;DHT22;1640;48.504;9.224;2023-12-20T02:24:41;5.90;99.90
3256;DHT22;1640;48.504;9.224;2023-12-20T02:27:08;5.90;99.90
3256;DHT22;1640;48.504;9.224;2023-12-20T02:29:36;5.90;99.90
3256;DHT22;1640;48.504;9.224;2023-12-20T02:32:04;5.90;99.90
3256;DHT22;1640;48.504;9.224;2023-12-20T02:34:32;5.80;99.90
3256;DHT22;1640;48.504;9.224;2023-12-20T02:36:59;5.90;99.90
3256;DHT22;1640;48.504;9.224;2023-12-20T02:39:28;5.80;99.90
3256;DHT22;1640;48.504;9.224;2023-12-20T02:41:56;5.80;99.90
3256;DHT22;1640;48.504;9.224;2023-12-20T02:44:23;5.80;99.90
3256;DHT22;1640;48.504;9.224;2023-12-20T02:46:51;5.80;99.90
3256;DHT22;1640;48.504;9.224;2023-12-20T02:49:18;5.80;99.90
3256;DHT22;1640;48.504;9.224;2023-12-20T02:51:46;5.80;99.90
3256;DHT22;1640;48.504;9.224;2023-12-20T02:54:14;5.80;99.90
3256;DHT22;1640;48.504;9.224;2023-12-20T02:56:43;5.80;99.90
3256;DHT22;1640;48.504;9.224;2023-12-20T02:59:10;5.80;99.90
3256;DHT22;1640;48.504;9.224;2023-12-20T03:01:42;5.80;99.90
3256;DHT22;1640;48.504;9.224;2023-12-20T03:04:10;5.80;99.90
3256;DHT22;1640;48.504;9.224;2023-12-20T03:06:37;5.80;99.90
3256;DHT22;1640;48.504;9.224;2023-12-20T03:09:05;5.90;99.90
3256;DHT22;1640;48.504;9.224;2023-12-20T03:11:32;5.90;99.90
3256;DHT22;1640;48.504;9.224;2023-12-20T03:14:01;5.90;99.90
3256;DHT22;1640;48.504;9.224;2023-12-20T03:16:29;5.80;99.90
3256;DHT22;1640;48.504;9.224;2023-12-20T03:18:57;5.80;99.90
3256;DHT22;1640;48.504;9.224;2023-12-20T03:21:25;5.90;99.90
3256;DHT22;1640;48.504;9.224;2023-12-20T03:23:52;5.90;99.90
3256;DHT22;1640;48.504;9.224;2023-12-20T03:26:20;5.90;99.90
3256;DHT22;1640;48.504;9.224;2023-12-20T03:28:48;5.90;99.90
3256;DHT22;1640;48.504;9.224;2023-12-20T03:31:17;5.90;99.90
3256;DHT22;1640;48.504;9.224;2023-12-20T03:33:45;5.90;99.90
3256;DHT22;1640;48.504;9.224;2023-12-20T03:36:13;5.80;99.90
3256;DHT22;1640;48.504;9.224;2023-12-20T03:38:40;5.90;99.90
3256;DHT22;1640;48.504;9.224;2023-12-20T03:41:08;5.80;99.90
3256;DHT22;1640;48.504;9.224;2023-12-20T03:43:36;5.90;99.90
3256;DHT22;1640;48.504;9.224;2023-12-20T03:46:03;5.90;99.90
3256;DHT22;1640;48.504;9.224;2023-12-20T03:48:32;5.90;99.90
3256;DHT22;1640;48.504;9.224;2023-12-20T03:51:00;5.90;99.90
3256;DHT22;1640;48.504;9.224;2023-12-20T03:53:28;5.90;99.90
3256;DHT22;1640;48.504;9.224;2023-12-20T03:55:55;5.90;99.90
3256;DHT22;1640;48.504;9.224;2023-12-20T03:58:23;5.90;99.90
3256;DHT22;1640;48.504;9.224;2023-12-20T04:00:51;5.90;99.90
3256;DHT22;1640;48.504;9.224;2023-12-20T04:03:18;5.90;99.90
3256;DHT22;1640;48.504;9.224;2023-12-20T04:05:47;5.80;99.90
3256;DHT22;1640;48.504;9.224;2023-12-20T04:08:15;5.90;99.90
3256;DHT22;1640;48.504;9.224;2023-12-20T04:10:43;5.90;99.90
3256;DHT22;1640;48.504;9.224;2023-12-20T04:13:10;5.90;99.90
3256;DHT22;1640;48.504;9.224;2023-12-20T04:15:38;5.90;99.90
3256;DHT22;1640;48.504;9.224;2023-12-20T04:18:05;5.80;99.90
3256;DHT22;1640;48.504;9.224;2023-12-20T04:20:33;5.80;99.90
3256;DHT22;1640;48.504;9.224;2023-12-20T04:23:02;5.80;99.90
3256;DHT22;1640;48.504;9.224;2023-12-20T04:25:30;5.70;99.90
3256;DHT22;1640;48.504;9.224;2023-12-20T04:27:57;5.70;99.90
3256;DHT22;1640;48.504;9.224;2023-12-20T04:30:25;5.60;99.90
3256;DHT22;1640;48.504;9.224;2023-12-20T04:32:52;5.70;99.90
3256;DHT22;1640;48.504;9.224;2023-12-20T04:35:20;5.60;99.90
3256;DHT22;1640;48.504;9.224;2023-12-20T04:37:48;5.60;99.90
3256;DHT22;1640;48.504;9.224;2023-12-20T04:40:18;5.70;99.90
3256;DHT22;1640;48.504;9.224;2023-12-20T04:42:46;5.70;99.90
3256;DHT22;1640;48.504;9.224;2023-12-20T04:45:14;5.70;99.90
3256;DHT22;1640;48.504;9.224;2023-12-20T04:47:42;5.70;99.90
3256;DHT22;1640;48.504;9.224;2023-12-20T04:50:09;5.70;99.90
3256;DHT22;1640;48.504;9.224;2023-12-20T04:52:39;5.80;99.90
3256;DHT22;1640;48.504;9.224;2023-12-20T04:55:07;5.70;99.90
3256;DHT22;1640;48.504;9.224;2023-12-20T04:57:36;5.60;99.90
3256;DHT22;1640;48.504;9.224;2023-12-20T05:00:04;5.70;99.90
3256;DHT22;1640;48.504;9.224;2023-12-20T05:02:34;5.70;99.90
3256;DHT22;1640;48.504;9.224;2023-12-20T05:05:02;5.70;99.90
3256;DHT22;1640;48.504;9.224;2023-12-20T05:07:30;5.60;99.90
3256;DHT22;1640;48.504;9.224;2023-12-20T05:09:58;5.60;99.90
3256;DHT22;1640;48.504;9.224;2023-12-20T05:12:26;5.60;99.90
3256;DHT22;1640;48.504;9.224;2023-12-20T05:14:55;5.60;99.90
3256;DHT22;1640;48.504;9.224;2023-12-20T05:17:22;5.60;99.90
3256;DHT22;1640;48.504;9.224;2023-12-20T05:19:50;5.50;99.90
3256;DHT22;1640;48.504;9.224;2023-12-20T05:22:18;5.50;99.90
3256;DHT22;1640;48.504;9.224;2023-12-20T05:24:46;5.50;99.90
3256;DHT22;1640;48.504;9.224;2023-12-20T05:27:13;5.50;99.90
3256;DHT22;1640;48.504;9.224;2023-12-20T05:29:41;5.50;99.90
3256;DHT22;1640;48.504;9.224;2023-12-20T05:32:10;5.60;99.90
3256;DHT22;1640;48.504;9.224;2023-12-20T05:34:38;5.60;99.90
3256;DHT22;1640;48.504;9.224;2023-12-20T05:37:05;5.50;99.90
3256;DHT22;1640;48.504;9.224;2023-12-20T05:39:33;5.50;99.90
3256;DHT22;1640;48.504;9.224;2023-12-20T05:42:00;5.50;99.90
3256;DHT22;1640;48.504;9.224;2023-12-20T05:44:28;5.50;99.90
3256;DHT22;1640;48.504;9.224;2023-12-20T05:46:55;5.60;99.90
3256;DHT22;1640;48.504;9.224;2023-12-20T05:49:24;5.60;99.90
3256;DHT22;1640;48.504;9.224;2023-12-20T05:51:52;5.50;99.90
3256;DHT22;1640;48.504;9.224;2023-12-20T05:54:20;5.60;99.90
3256;DHT22;1640;48.504;9.224;2023-12-20T05:56:47;5.60;99.90
3256;DHT22;1640;48.504;9.224;2023-12-20T05:59:15;5.60;99.90
3256;DHT22;1640;48.504;9.224;2023-12-20T06:01:42;5.50;99.90
3256;DHT22;1640;48.504;9.224;2023-12-20T06:04:10;5.50;99.90
3256;DHT22;1640;48.504;9.224;2023-12-20T06:06:42;5.50;99.90
3256;DHT22;1640;48.504;9.224;2023-12-20T06:09:10;5.60;99.90
3256;DHT22;1640;48.504;9.224;2023-12-20T06:11:38;5.50;99.90
3256;DHT22;1640;48.504;9.224;2023-12-20T06:14:05;5.50;99.90
3256;DHT22;1640;48.504;9.224;2023-12-20T06:16:33;5.60;99.90
3256;DHT22;1640;48.504;9.224;2023-12-20T06:19:00;5.60;99.90
3256;DHT22;1640;48.504;9.224;2023-12-20T06:21:28;5.60;99.90
3256;DHT22;1640;48.504;9.224;2023-12-20T06:23:58;5.60;99.90
3256;DHT22;1640;48.504;9.224;2023-12-20T06:26:26;5.50;99.90
3256;DHT22;1640;48.504;9.224;2023-12-20T06:28:53;5.60;99.90
3256;DHT22;1640;48.504;9.224;2023-12-20T06:31:21;5.60;99.90
3256;DHT22;1640;48.504;9.224;2023-12-20T06:33:49;5.60;99.90
3256;DHT22;1640;48.504;9.224;2023-12-20T06:36:23;5.60;99.90
3256;DHT22;1640;48.504;9.224;2023-12-20T06:38:51;5.50;99.90
3256;DHT22;1640;48.504;9.224;2023-12-20T06:41:21;5.60;99.90
3256;DHT22;1640;48.504;9.224;2023-12-20T06:43:50;5.60;99.90
3256;DHT22;1640;48.504;9.224;2023-12-20T06:46:19;5.60;99.90
3256;DHT22;1640;48.504;9.224;2023-12-20T06:48:46;5.70;99.90
3256;DHT22;1640;48.504;9.224;2023-12-20T06:51:15;5.70;99.90
3256;DHT22;1640;48.504;9.224;2023-12-20T06:53:43;5.70;99.90
3256;DHT22;1640;48.504;9.224;2023-12-20T06:56:11;5.70;99.90
3256;DHT22;1640;48.504;9.224;2023-12-20T06:58:40;5.70;99.90
3256;DHT22;1640;48.504;9.224;2023-12-20T07:01:11;5.70;99.90
3256;DHT22;1640;48.504;9.224;2023-12-20T07:03:39;5.70;99.90
3256;DHT22;1640;48.504;9.224;2023-12-20T07:06:06;5.70;99.90
3256;DHT22;1640;48.504;9.224;2023-12-20T07:08:34;5.70;99.90
3256;DHT22;1640;48.504;9.224;2023-12-20T07:11:02;5.70;99.90
3256;DHT22;1640;48.504;9.224;2023-12-20T07:13:30;5.60;99.90
3256;DHT22;1640;48.504;9.224;2023-12-20T07:15:59;5.60;99.90
3256;DHT22;1640;48.504;9.224;2023-12-20T07:18:26;5.70;99.90
3256;DHT22;1640;48.504;9.224;2023-12-20T07:20:54;5.70;99.90
3256;DHT22;1640;48.504;9.224;2023-12-20T07:23:23;5.70;99.90
3256;DHT22;1640;48.504;9.224;2023-12-20T07:25:52;5.60;99.90
3256;DHT22;1640;48.504;9.224;2023-12-20T07:28:20;5.60;99.90
3256;DHT22;1640;48.504;9.224;2023-12-20T07:30:48;5.60;99.90
3256;DHT22;1640;48.504;9.224;2023-12-20T07:33:17;5.70;99.90
3256;DHT22;1640;48.504;9.224;2023-12-20T07:35:47;5.70;99.90
3256;DHT22;1640;48.504;9.224;2023-12-20T07:38:14;5.80;99.90
3256;DHT22;1640;48.504;9.224;2023-12-20T07:40:42;5.80;99.90
3256;DHT22;1640;48.504;9.224;2023-12-20T07:43:10;5.80;99.90
3256;DHT22;1640;48.504;9.224;2023-12-20T07:45:37;5.80;99.90
3256;DHT22;1640;48.504;9.224;2023-12-20T07:48:06;5.90;99.90
3256;DHT22;1640;48.504;9.224;2023-12-20T07:50:36;5.80;99.90
3256;DHT22;1640;48.504;9.224;2023-12-20T07:53:03;5.80;99.90
3256;DHT22;1640;48.504;9.224;2023-12-20T07:55:31;5.90;99.90
3256;DHT22;1640;48.504;9.224;2023-12-20T07:57:59;5.90;99.90
3256;DHT22;1640;48.504;9.224;2023-12-20T08:00:27;5.90;99.90
3256;DHT22;1640;48.504;9.224;2023-12-20T08:02:55;6.00;99.90
3256;DHT22;1640;48.504;9.224;2023-12-20T08:05:22;6.10;99.90
3256;DHT22;1640;48.504;9.224;2023-12-20T08:07:51;6.00;99.90
3256;DHT22;1640;48.504;9.224;2023-12-20T08:10:20;6.00;99.90
3256;DHT22;1640;48.504;9.224;2023-12-20T08:12:47;6.00;99.90
3256;DHT22;1640;48.504;9.224;2023-12-20T08:15:15;6.10;99.90
3256;DHT22;1640;48.504;9.224;2023-12-20T08:17:43;6.00;99.90
3256;DHT22;1640;48.504;9.224;2023-12-20T08:20:11;6.10;99.90
3256;DHT22;1640;48.504;9.224;2023-12-20T08:22:38;6.00;99.90
3256;DHT22;1640;48.504;9.224;2023-12-20T08:25:08;6.10;99.90
3256;DHT22;1640;48.504;9.224;2023-12-20T08:27:39;6.10;99.90
3256;DHT22;1640;48.504;9.224;2023-12-20T08:30:08;6.00;99.90
3256;DHT22;1640;48.504;9.224;2023-12-20T08:32:36;6.00;99.90
3256;DHT22;1640;48.504;9.224;2023-12-20T08:35:04;6.00;99.90
3256;DHT22;1640;48.504;9.224;2023-12-20T08:37:32;6.00;99.90
3256;DHT22;1640;48.504;9.224;2023-12-20T08:40:00;6.00;99.90
3256;DHT22;1640;48.504;9.224;2023-12-20T08:42:28;6.00;99.90
3256;DHT22;1640;48.504;9.224;2023-12-20T08:44:57;6.10;99.90
3256;DHT22;1640;48.504;9.224;2023-12-20T08:47:25;6.20;99.90
3256;DHT22;1640;48.504;9.224;2023-12-20T08:49:53;6.20;99.90
3256;DHT22;1640;48.504;9.224;2023-12-20T08:52:22;6.20;99.90
3256;DHT22;1640;48.504;9.224;2023-12-20T08:54:50;6.40;99.90
3256;DHT22;1640;48.504;9.224;2023-12-20T08:57:19;6.60;99.90
3256;DHT22;1640;48.504;9.224;2023-12-20T08:59:48;6.60;99.90
3256;DHT22;1640;48.504;9.224;2023-12-20T09:02:16;6.60;99.90
3256;DHT22;1640;48.504;9.224;2023-12-20T09:04:44;6.60;99.90
3256;DHT22;1640;48.504;9.224;2023-12-20T09:07:21;6.60;99.90
3256;DHT22;1640;48.504;9.224;2023-12-20T09:09:49;6.50;99.90
3256;DHT22;1640;48.504;9.224;2023-12-20T09:12:18;6.50;99.90
3256;DHT22;1640;48.504;9.224;2023-12-20T09:14:46;6.50;99.90
3256;DHT22;1640;48.504;9.224;2023-12-20T09:17:15;6.50;99.90
3256;DHT22;1640;48.504;9.224;2023-12-20T09:19:42;6.40;99.90
3256;DHT22;1640;48.504;9.224;2023-12-20T09:22:11;6.40;99.90
3256;DHT22;1640;48.504;9.224;2023-12-20T09:24:39;6.40;99.90
3256;DHT22;1640;48.504;9.224;2023-12-20T09:27:07;6.40;99.90
3256;DHT22;1640;48.504;9.224;2023-12-20T09:29:36;6.30;99.90
3256;DHT22;1640;48.504;9.224;2023-12-20T09:32:04;6.10;99.90
3256;DHT22;1640;48.504;9.224;2023-12-20T09:34:33;6.00;99.90
3256;DHT22;1640;48.504;9.224;2023-12-20T09:37:01;5.80;99.90
3256;DHT22;1640;48.504;9.224;2023-12-20T09:39:29;5.60;99.90
3256;DHT22;1640;48.504;9.224;2023-12-20T09:42:01;5.60;99.90
3256;DHT22;1640;48.504;9.224;2023-12-20T09:44:29;5.50;99.90
3256;DHT22;1640;48.504;9.224;2023-12-20T09:46:57;5.50;99.90
3256;DHT22;1640;48.504;9.224;2023-12-20T09:49:25;5.40;99.90
3256;DHT22;1640;48.504;9.224;2023-12-20T09:51:56;5.30;99.90
3256;DHT22;1640;48.504;9.224;2023-12-20T09:54:24;5.30;99.90
3256;DHT22;1640;48.504;9.224;2023-12-20T09:56:52;5.20;99.90
3256;DHT22;1640;48.504;9.224;2023-12-20T09:59:20;5.10;99.90
3256;DHT22;1640;48.504;9.224;2023-12-20T10:01:48;4.90;99.90
3256;DHT22;1640;48.504;9.224;2023-12-20T10:04:16;4.90;99.90
3256;DHT22;1640;48.504;9.224;2023-12-20T10:06:44;4.70;99.90
3256;DHT22;1640;48.504;9.224;2023-12-20T10:09:13;4.70;99.90
3256;DHT22;1640;48.504;9.224;2023-12-20T10:11:41;4.70;99.90
3256;DHT22;1640;48.504;9.224;2023-12-20T10:14:11;4.70;99.90
3256;DHT22;1640;48.504;9.224;2023-12-20T10:16:38;4.70;99.90
3256;DHT22;1640;48.504;9.224;2023-12-20T10:19:06;4.70;99.90
3256;DHT22;1640;48.504;9.224;2023-12-20T10:21:34;4.70;99.90
3256;DHT22;1640;48.504;9.224;2023-12-20T10:24:01;4.70;99.90
3256;DHT22;1640;48.504;9.224;2023-12-20T10:26:30;4.70;99.90
3256;DHT22;1640;48.504;9.224;2023-12-20T10:29:00;4.60;99.90
3256;DHT22;1640;48.504;9.224;2023-12-20T10:31:30;4.60;99.90
3256;DHT22;1640;48.504;9.224;2023-12-20T10:34:01;4.60;99.90
3256;DHT22;1640;48.504;9.224;2023-12-20T10:36:30;4.60;99.90
3256;DHT22;1640;48.504;9.224;2023-12-20T10:38:58;4.70;99.90
3256;DHT22;1640;48.504;9.224;2023-12-20T10:41:27;4.70;99.90
3256;DHT22;1640;48.504;9.224;2023-12-20T10:43:59;4.70;99.90
3256;DHT22;1640;48.504;9.224;2023-12-20T10:46:27;4.70;99.90
3256;DHT22;1640;48.504;9.224;2023-12-20T10:48:56;4.80;99.90
3256;DHT22;1640;48.504;9.224;2023-12-20T10:51:24;4.80;99.90
3256;DHT22;1640;48.504;9.224;2023-12-20T10:53:56;4.90;99.90
3256;DHT22;1640;48.504;9.224;2023-12-20T10:56:23;4.90;99.90
3256;DHT22;1640;48.504;9.224;2023-12-20T10:58:51;5.00;99.90
3256;DHT22;1640;48.504;9.224;2023-12-20T11:01:20;5.00;99.90
3256;DHT22;1640;48.504;9.224;2023-12-20T11:03:51;5.00;99.90
3256;DHT22;1640;48.504;9.224;2023-12-20T11:06:27;5.10;99.90
3256;DHT22;1640;48.504;9.224;2023-12-20T11:09:04;5.10;99.90
3256;DHT22;1640;48.504;9.224;2023-12-20T11:11:42;5.10;99.90
3256;DHT22;1640;48.504;9.224;2023-12-20T11:14:17;5.10;1.50
3256;DHT22;1640;48.504;9.224;2023-12-20T11:16:47;5.20;8.30
3256;DHT22;1640;48.504;9.224;2023-12-20T11:19:15;5.30;5.40
3256;DHT22;1640;48.504;9.224;2023-12-20T11:21:46;5.50;99.90
3256;DHT22;1640;48.504;9.224;2023-12-20T11:24:15;5.80;5.40
3256;DHT22;1640;48.504;9.224;2023-12-20T11:26:47;6.10;8.90
3256;DHT22;1640;48.504;9.224;2023-12-20T11:29:33;6.20;26.50
3256;DHT22;1640;48.504;9.224;2023-12-20T11:32:04;6.30;36.50
3256;DHT22;1640;48.504;9.224;2023-12-20T11:34:51;6.30;41.70
3256;DHT22;1640;48.504;9.224;2023-12-20T11:37:20;6.40;42.60
3256;DHT22;1640;48.504;9.224;2023-12-20T11:39:54;6.40;46.10
3256;DHT22;1640;48.504;9.224;2023-12-20T11:42:22;6.40;47.50
3256;DHT22;1640;48.504;9.224;2023-12-20T11:44:50;6.40;42.50
3256;DHT22;1640;48.504;9.224;2023-12-20T11:47:19;6.40;44.10
3256;DHT22;1640;48.504;9.224;2023-12-20T11:49:47;6.30;50.10
3256;DHT22;1640;48.504;9.224;2023-12-20T11:52:17;6.30;41.40
3256;DHT22;1640;48.504;9.224;2023-12-20T11:54:45;6.40;48.60
3256;DHT22;1640;48.504;9.224;2023-12-20T11:57:14;6.40;50.90
3256;DHT22;1640;48.504;9.224;2023-12-20T11:59:43;6.40;56.90
3256;DHT22;1640;48.504;9.224;2023-12-20T12:02:12;6.30;54.60
3256;DHT22;1640;48.504;9.224;2023-12-20T12:04:42;6.30;55.80
3256;DHT22;1640;48.504;9.224;2023-12-20T12:07:10;6.40;55.90
3256;DHT22;1640;48.504;9.224;2023-12-20T12:09:38;6.30;62.20
3256;DHT22;1640;48.504;9.224;2023-12-20T12:12:06;6.20;62.70
3256;DHT22;1640;48.504;9.224;2023-12-20T12:14:34;6.40;62.90
3256;DHT22;1640;48.504;9.224;2023-12-20T12:17:03;6.40;71.10
3256;DHT22;1640;48.504;9.224;2023-12-20T12:19:31;6.50;68.30
3256;DHT22;1640;48.504;9.224;2023-12-20T12:22:06;6.40;74.20
3256;DHT22;1640;48.504;9.224;2023-12-20T12:24:37;6.30;71.50
3256;DHT22;1640;48.504;9.224;2023-12-20T12:27:06;6.30;69.00
3256;DHT22;1640;48.504;9.224;2023-12-20T12:29:35;6.30;73.20
3256;DHT22;1640;48.504;9.224;2023-12-20T12:32:05;6.20;72.30
3256;DHT22;1640;48.504;9.224;2023-12-20T12:34:33;6.10;71.90
3256;DHT22;1640;48.504;9.224;2023-12-20T12:37:01;6.00;71.50
3256;DHT22;1640;48.504;9.224;2023-12-20T12:39:31;6.00;68.60
3256;DHT22;1640;48.504;9.224;2023-12-20T12:41:58;6.00;68.00
3256;DHT22;1640;48.504;9.224;2023-12-20T12:44:26;6.00;69.60
3256;DHT22;1640;48.504;9.224;2023-12-20T12:46:54;6.00;68.90
3256;DHT22;1640;48.504;9.224;2023-12-20T12:49:22;5.90;68.30
3256;DHT22;1640;48.504;9.224;2023-12-20T12:51:50;5.80;69.50
3256;DHT22;1640;48.504;9.224;2023-12-20T12:54:18;5.80;68.30
3256;DHT22;1640;48.504;9.224;2023-12-20T12:56:48;5.70;67.80
3256;DHT22;1640;48.504;9.224;2023-12-20T12:59:16;5.70;64.50
3256;DHT22;1640;48.504;9.224;2023-12-20T13:01:44;5.80;61.70
3256;DHT22;1640;48.504;9.224;2023-12-20T13:04:12;5.80;60.10
3256;DHT22;1640;48.504;9.224;2023-12-20T13:06:39;5.90;61.00
3256;DHT22;1640;48.504;9.224;2023-12-20T13:09:08;5.80;64.00
3256;DHT22;1640;48.504;9.224;2023-12-20T13:11:36;5.70;64.00
3256;DHT22;1640;48.504;9.224;2023-12-20T13:14:06;5.70;64.60
3256;DHT22;1640;48.504;9.224;2023-12-20T13:16:36;5.70;67.20
3256;DHT22;1640;48.504;9.224;2023-12-20T13:19:04;5.80;66.20
3256;DHT22;1640;48.504;9.224;2023-12-20T13:21:32;5.90;65.30
3256;DHT22;1640;48.504;9.224;2023-12-20T13:24:00;6.00;72.60
3256;DHT22;1640;48.504;9.224;2023-12-20T13:26:27;6.00;73.80
3256;DHT22;1640;48.504;9.224;2023-12-20T13:28:55;6.10;72.80
3256;DHT22;1640;48.504;9.224;2023-12-20T13:31:24;6.20;73.20
3256;DHT22;1640;48.504;9.224;2023-12-20T13:33:52;6.10;73.50
3256;DHT22;1640;48.504;9.224;2023-12-20T13:36:20;6.00;74.40
3256;DHT22;1640;48.504;9.224;2023-12-20T13:38:47;6.10;73.20
3256;DHT22;1640;48.504;9.224;2023-12-20T13:41:15;6.20;74.50
3256;DHT22;1640;48.504;9.224;2023-12-20T13:43:43;6.40;72.20
3256;DHT22;1640;48.504;9.224;2023-12-20T13:46:11;6.40;73.60
3256;DHT22;1640;48.504;9.224;2023-12-20T13:48:41;6.50;73.50
3256;DHT22;1640;48.504;9.224;2023-12-20T13:51:09;6.50;75.20
3256;DHT22;1640;48.504;9.224;2023-12-20T13:53:36;6.50;73.90
3256;DHT22;1640;48.504;9.224;2023-12-20T13:56:05;6.50;73.50
3256;DHT22;1640;48.504;9.224;2023-12-20T13:58:33;6.50;73.10
3256;DHT22;1640;48.504;9.224;2023-12-20T14:01:00;6.30;74.80
3256;DHT22;1640;48.504;9.224;2023-12-20T14:03:28;6.20;70.80
3256;DHT22;1640;48.504;9.224;2023-12-20T14:05:58;6.10;69.80
3256;DHT22;1640;48.504;9.224;2023-12-20T14:08:26;6.10;68.60
3256;DHT22;1640;48.504;9.224;2023-12-20T14:10:56;6.00;65.70
3256;DHT22;1640;48.504;9.224;2023-12-20T14:13:31;6.00;64.70
3256;DHT22;1640;48.504;9.224;2023-12-20T14:15:59;5.90;60.90
3256;DHT22;1640;48.504;9.224;2023-12-20T14:18:28;6.00;59.90
3256;DHT22;1640;48.504;9.224;2023-12-20T14:20:58;6.10;58.00
3256;DHT22;1640;48.504;9.224;2023-12-20T14:23:25;6.00;57.30
3256;DHT22;1640;48.504;9.224;2023-12-20T14:25:53;5.90;58.90
3256;DHT22;1640;48.504;9.224;2023-12-20T14:28:22;6.00;55.40
3256;DHT22;1640;48.504;9.224;2023-12-20T14:30:50;5.90;54.00
3256;DHT22;1640;48.504;9.224;2023-12-20T14:33:18;5.90;53.70
3256;DHT22;1640;48.504;9.224;2023-12-20T14:35:47;5.90;54.20
3256;DHT22;1640;48.504;9.224;2023-12-20T14:38:16;6.00;50.90
3256;DHT22;1640;48.504;9.224;2023-12-20T14:40:45;6.00;55.20
3256;DHT22;1640;48.504;9.224;2023-12-20T14:43:13;5.90;52.30
3256;DHT22;1640;48.504;9.224;2023-12-20T14:45:40;5.80;51.70
3256;DHT22;1640;48.504;9.224;2023-12-20T14:48:08;5.80;49.30
3256;DHT22;1640;48.504;9.224;2023-12-20T14:50:36;5.80;47.50
3256;DHT22;1640;48.504;9.224;2023-12-20T14:53:04;5.70;44.00
3256;DHT22;1640;48.504;9.224;2023-12-20T14:55:33;5.70;40.00
3256;DHT22;1640;48.504;9.224;2023-12-20T14:58:01;5.60;44.40
3256;DHT22;1640;48.504;9.224;2023-12-20T15:00:29;5.50;41.50
3256;DHT22;1640;48.504;9.224;2023-12-20T15:02:56;5.50;38.50
3256;DHT22;1640;48.504;9.224;2023-12-20T15:05:24;5.40;38.40
3256;DHT22;1640;48.504;9.224;2023-12-20T15:07:52;5.40;38.50
3256;DHT22;1640;48.504;9.224;2023-12-20T15:10:20;5.40;39.80
3256;DHT22;1640;48.504;9.224;2023-12-20T15:12:49;5.40;37.50
3256;DHT22;1640;48.504;9.224;2023-12-20T15:15:17;5.30;34.70
3256;DHT22;1640;48.504;9.224;2023-12-20T15:17:45;5.40;33.40
3256;DHT22;1640;48.504;9.224;2023-12-20T15:20:16;5.40;33.30
3256;DHT22;1640;48.504;9.224;2023-12-20T15:22:44;5.30;30.70
3256;DHT22;1640;48.504;9.224;2023-12-20T15:25:11;5.30;29.60
3256;DHT22;1640;48.504;9.224;2023-12-20T15:27:45;5.30;29.60
3256;DHT22;1640;48.504;9.224;2023-12-20T15:30:17;5.30;25.90
3256;DHT22;1640;48.504;9.224;2023-12-20T15:32:47;5.20;25.40
3256;DHT22;1640;48.504;9.224;2023-12-20T15:35:15;5.20;21.80
3256;DHT22;1640;48.504;9.224;2023-12-20T15:37:44;5.10;22.90
3256;DHT22;1640;48.504;9.224;2023-12-20T15:40:11;5.10;20.20
3256;DHT22;1640;48.504;9.224;2023-12-20T15:42:39;5.10;19.20
3256;DHT22;1640;48.504;9.224;2023-12-20T15:45:12;5.10;17.90
3256;DHT22;1640;48.504;9.224;2023-12-20T15:47:41;5.10;19.50
3256;DHT22;1640;48.504;9.224;2023-12-20T15:50:08;5.00;18.20
3256;DHT22;1640;48.504;9.224;2023-12-20T15:52:36;4.90;16.90
3256;DHT22;1640;48.504;9.224;2023-12-20T15:55:04;4.80;14.10
3256;DHT22;1640;48.504;9.224;2023-12-20T15:57:32;4.70;10.90
3256;DHT22;1640;48.504;9.224;2023-12-20T16:00:00;4.60;8.20
3256;DHT22;1640;48.504;9.224;2023-12-20T16:02:28;4.50;3.60
3256;DHT22;1640;48.504;9.224;2023-12-20T16:05:00;4.50;99.90
3256;DHT22;1640;48.504;9.224;2023-12-20T16:07:28;4.50;99.90
3256;DHT22;1640;48.504;9.224;2023-12-20T16:09:56;4.60;1.10
3256;DHT22;1640;48.504;9.224;2023-12-20T16:12:23;4.60;3.70
3256;DHT22;1640;48.504;9.224;2023-12-20T16:14:51;4.60;5.90
3256;DHT22;1640;48.504;9.224;2023-12-20T16:17:19;4.50;5.00
3256;DHT22;1640;48.504;9.224;2023-12-20T16:19:46;4.50;2.00
3256;DHT22;1640;48.504;9.224;2023-12-20T16:22:17;4.50;99.90
3256;DHT22;1640;48.504;9.224;2023-12-20T16:24:45;4.60;2.00
3256;DHT22;1640;48.504;9.224;2023-12-20T16:27:13;4.60;3.70